createdAt,value
2022-11-28T00:01:34.116Z,2.10
2022-11-28T00:04:03.503Z,2.10
2022-11-28T00:06:31.526Z,2.18
2022-11-28T00:08:59.926Z,2.20
2022-11-28T00:11:27.867Z,2.30
2022-11-28T00:13:55.979Z,2.30
2022-11-28T00:16:24.550Z,2.40
2022-11-28T00:18:55.134Z,2.40
2022-11-28T00:21:23.629Z,2.40
2022-11-28T00:23:52.640Z,2.42
2022-11-28T00:26:26.428Z,2.40
2022-11-28T00:28:56.625Z,2.46
2022-11-28T00:31:32.984Z,2.50
2022-11-28T00:34:04.597Z,2.50
2022-11-28T00:36:32.301Z,2.48
2022-11-28T00:39:00.098Z,2.40
2022-11-28T00:41:34.042Z,2.40
2022-11-28T00:44:01.908Z,2.40
2022-11-28T00:46:30.143Z,2.38
2022-11-28T00:48:59.493Z,2.34
2022-11-28T00:51:33.027Z,2.36
2022-11-28T00:54:03.998Z,2.36
2022-11-28T00:56:36.507Z,2.40
2022-11-28T00:59:04.816Z,2.40
2022-11-28T01:01:41.242Z,2.42
2022-11-28T01:04:13.156Z,2.50
2022-11-28T01:06:50.258Z,2.50
2022-11-28T01:09:24.033Z,2.48
2022-11-28T01:11:54.151Z,2.50
2022-11-28T01:14:24.563Z,2.50
2022-11-28T01:16:52.727Z,2.42
2022-11-28T01:19:21.327Z,2.44
2022-11-28T01:21:49.070Z,2.50
2022-11-28T01:24:17.807Z,2.44
2022-11-28T01:26:45.610Z,2.40
2022-11-28T01:29:13.295Z,2.40
2022-11-28T01:31:41.290Z,2.42
2022-11-28T01:34:09.370Z,2.50
2022-11-28T01:36:37.120Z,2.50
2022-11-28T01:39:04.964Z,2.44
2022-11-28T01:41:33.039Z,2.42
2022-11-28T01:44:05.030Z,2.50
2022-11-28T01:46:34.855Z,2.50
2022-11-28T01:49:22.546Z,2.46
2022-11-28T01:51:59.961Z,2.50
2022-11-28T01:54:31.910Z,2.50
2022-11-28T01:57:11.511Z,2.40
2022-11-28T01:59:58.624Z,2.40
2022-11-28T02:02:37.648Z,2.40
2022-11-28T02:05:07.602Z,2.48
2022-11-28T02:07:37.959Z,2.50
2022-11-28T02:10:10.972Z,2.52
2022-11-28T02:12:56.995Z,2.60
2022-11-28T02:16:02.241Z,2.60
2022-11-28T02:19:00.215Z,2.60
2022-11-28T02:21:53.598Z,2.50
2022-11-28T02:24:54.837Z,2.50
2022-11-28T02:27:46.939Z,2.50
2022-11-28T02:30:39.359Z,2.52
2022-11-28T02:33:17.492Z,2.54
2022-11-28T02:36:15.313Z,2.60
2022-11-28T02:39:07.352Z,2.60
2022-11-28T02:41:40.667Z,2.56
2022-11-28T02:44:34.791Z,2.50
2022-11-28T02:47:23.871Z,2.50
2022-11-28T02:50:15.478Z,2.50
2022-11-28T02:52:50.995Z,2.50
2022-11-28T02:55:20.312Z,2.50
2022-11-28T02:57:54.698Z,2.60
2022-11-28T03:00:30.046Z,2.60
2022-11-28T03:03:24.976Z,2.62
2022-11-28T03:06:16.024Z,2.70
2022-11-28T03:08:52.823Z,2.70
2022-11-28T03:11:28.855Z,2.70
2022-11-28T03:14:39.298Z,2.64
2022-11-28T03:17:44.357Z,2.62
2022-11-28T03:20:56.178Z,2.64
2022-11-28T03:23:43.406Z,2.60
2022-11-28T03:26:29.754Z,2.60
2022-11-28T03:29:11.769Z,2.50
2022-11-28T03:31:47.083Z,2.50
2022-11-28T03:34:20.520Z,2.40
2022-11-28T03:37:00.170Z,2.44
2022-11-28T03:39:40.293Z,2.50
2022-11-28T03:42:14.601Z,2.50
2022-11-28T03:45:14.114Z,2.50
2022-11-28T03:47:47.319Z,2.50
2022-11-28T03:50:27.975Z,2.50
2022-11-28T03:53:18.757Z,2.50
2022-11-28T03:56:10.032Z,2.50
2022-11-28T03:58:51.958Z,2.50
2022-11-28T04:01:34.621Z,2.48
2022-11-28T04:04:23.487Z,2.50
2022-11-28T04:06:56.287Z,2.50
2022-11-28T04:09:49.787Z,2.50
2022-11-28T04:12:40.115Z,2.50
2022-11-28T04:15:19.515Z,2.50
2022-11-28T04:17:58.454Z,2.50
2022-11-28T04:20:39.300Z,2.50
2022-11-28T04:23:13.483Z,2.46
2022-11-28T04:25:52.315Z,2.50
2022-11-28T04:28:25.758Z,2.50
2022-11-28T04:30:58.039Z,2.60
2022-11-28T04:33:31.305Z,2.56
2022-11-28T04:36:01.545Z,2.50
2022-11-28T04:38:31.537Z,2.50
2022-11-28T04:41:16.719Z,2.50
2022-11-28T04:44:01.139Z,2.50
2022-11-28T04:46:44.940Z,2.60
2022-11-28T04:49:14.192Z,2.60
2022-11-28T04:51:49.773Z,2.60
2022-11-28T04:54:31.762Z,2.60
2022-11-28T04:57:24.434Z,2.52
2022-11-28T04:59:53.651Z,2.60
2022-11-28T05:02:24.127Z,2.60
2022-11-28T05:04:55.640Z,2.60
2022-11-28T05:07:24.255Z,2.60
2022-11-28T05:09:52.107Z,2.64
2022-11-28T05:12:19.756Z,2.70
2022-11-28T05:14:47.476Z,2.70
2022-11-28T05:17:15.236Z,2.70
2022-11-28T05:19:42.870Z,2.70
2022-11-28T05:22:10.623Z,2.70
2022-11-28T05:24:38.302Z,2.70
2022-11-28T05:27:07.426Z,2.70
2022-11-28T05:29:35.255Z,2.74
2022-11-28T05:32:04.426Z,2.70
2022-11-28T05:34:32.275Z,2.70
2022-11-28T05:36:59.948Z,2.70
2022-11-28T05:39:27.984Z,2.70
2022-11-28T05:41:56.564Z,2.70
2022-11-28T05:44:26.999Z,2.64
2022-11-28T05:46:55.047Z,2.60
2022-11-28T05:49:24.012Z,2.62
2022-11-28T05:51:51.916Z,2.70
2022-11-28T05:54:19.805Z,2.70
2022-11-28T05:56:47.989Z,2.70
2022-11-28T05:59:15.665Z,2.70
2022-11-28T06:01:43.753Z,2.70
2022-11-28T06:04:11.570Z,2.70
2022-11-28T06:06:39.351Z,2.70
2022-11-28T06:09:07.570Z,2.70
2022-11-28T06:11:35.867Z,2.70
2022-11-28T06:14:03.811Z,2.70
2022-11-28T06:16:31.955Z,2.80
2022-11-28T06:19:03.883Z,2.80
2022-11-28T06:21:32.779Z,2.78
2022-11-28T06:24:00.825Z,2.70
2022-11-28T06:26:29.390Z,2.70
2022-11-28T06:28:57.154Z,2.70
2022-11-28T06:31:28.719Z,2.70
2022-11-28T06:33:58.680Z,2.70
2022-11-28T06:36:27.752Z,2.78
2022-11-28T06:38:55.416Z,2.80
2022-11-28T06:41:23.395Z,2.70
2022-11-28T06:43:51.252Z,2.70
2022-11-28T06:46:21.922Z,2.70
2022-11-28T06:48:51.995Z,2.76
2022-11-28T06:51:21.477Z,2.80
2022-11-28T06:53:50.101Z,2.80
2022-11-28T06:56:20.521Z,2.80
2022-11-28T06:58:56.219Z,2.80
2022-11-28T07:01:27.663Z,2.80
2022-11-28T07:03:55.994Z,2.80
2022-11-28T07:06:26.587Z,2.80
2022-11-28T07:08:58.611Z,2.80
2022-11-28T07:11:30.757Z,2.80
2022-11-28T07:14:01.780Z,2.80
2022-11-28T07:16:32.966Z,2.90
2022-11-28T07:19:01.298Z,2.90
2022-11-28T07:21:30.255Z,2.90
2022-11-28T07:23:59.853Z,2.92
2022-11-28T07:26:28.535Z,3.00
2022-11-28T07:28:58.360Z,2.98
2022-11-28T07:31:31.555Z,3.00
2022-11-28T07:34:03.537Z,2.90
2022-11-28T07:36:31.983Z,2.92
2022-11-28T07:39:03.226Z,3.00
2022-11-28T07:41:31.728Z,3.00
2022-11-28T07:44:03.633Z,3.00
2022-11-28T07:46:33.698Z,3.00
2022-11-28T07:49:02.143Z,3.00
2022-11-28T07:51:33.633Z,3.00
2022-11-28T07:54:03.581Z,3.00
2022-11-28T07:57:04.699Z,3.00
2022-11-28T07:59:23.719Z,3.10
2022-11-28T08:01:53.688Z,3.10
2022-11-28T08:04:21.897Z,3.10
2022-11-28T08:06:49.870Z,3.10
2022-11-28T08:09:17.678Z,3.14
2022-11-28T08:11:45.361Z,3.20
2022-11-28T08:14:14.226Z,3.20
2022-11-28T08:16:45.125Z,3.20
2022-11-28T08:19:13.485Z,3.20
2022-11-28T08:21:41.656Z,3.20
2022-11-28T08:24:11.691Z,3.30
2022-11-28T08:26:39.651Z,3.30
2022-11-28T08:29:07.471Z,3.30
2022-11-28T08:31:39.019Z,3.30
2022-11-28T08:34:10.686Z,3.30
2022-11-28T08:36:38.484Z,3.30
2022-11-28T08:39:23.530Z,3.30
2022-11-28T08:41:57.784Z,3.40
2022-11-28T08:44:30.459Z,3.40
2022-11-28T08:46:58.963Z,3.40
2022-11-28T08:49:26.740Z,3.46
2022-11-28T08:51:54.488Z,3.48
2022-11-28T08:54:22.200Z,3.50
2022-11-28T08:56:50.265Z,3.50
2022-11-28T08:59:18.188Z,3.50
2022-11-28T09:01:45.923Z,3.52
2022-11-28T09:04:14.032Z,3.60
2022-11-28T09:06:41.722Z,3.60
2022-11-28T09:09:10.136Z,3.60
2022-11-28T09:11:38.336Z,3.60
2022-11-28T09:14:06.564Z,3.60
2022-11-28T09:16:34.373Z,3.60
2022-11-28T09:19:02.117Z,3.60
2022-11-28T09:21:29.791Z,3.60
2022-11-28T09:23:57.528Z,3.70
2022-11-28T09:26:26.047Z,3.70
2022-11-28T09:28:54.983Z,3.70
2022-11-28T09:31:23.125Z,3.70
2022-11-28T09:33:51.107Z,3.70
2022-11-28T09:36:22.591Z,3.70
2022-11-28T09:38:51.356Z,3.70
2022-11-28T09:41:34.906Z,3.70
2022-11-28T09:44:21.833Z,3.70
2022-11-28T09:46:55.325Z,3.70
2022-11-28T09:49:41.850Z,3.70
2022-11-28T09:52:49.195Z,3.74
2022-11-28T09:55:27.201Z,3.70
2022-11-28T09:57:56.496Z,3.70
2022-11-28T10:00:44.554Z,3.70
2022-11-28T10:03:25.366Z,3.70
2022-11-28T10:06:33.728Z,3.70
2022-11-28T10:09:38.354Z,3.70
2022-11-28T10:12:47.513Z,3.70
2022-11-28T10:15:54.787Z,3.70
2022-11-28T10:18:22.466Z,3.70
2022-11-28T10:21:02.911Z,3.70
2022-11-28T10:23:46.930Z,3.70
2022-11-28T10:26:41.245Z,3.80
2022-11-28T10:29:26.388Z,3.80
2022-11-28T10:31:59.837Z,3.80
2022-11-28T10:34:36.436Z,3.80
2022-11-28T10:37:25.831Z,3.80
2022-11-28T10:39:56.053Z,3.78
2022-11-28T10:42:43.426Z,3.80
2022-11-28T10:45:48.168Z,3.80
2022-11-28T10:48:54.160Z,3.90
2022-11-28T10:51:53.304Z,3.90
2022-11-28T10:55:02.320Z,3.90
2022-11-28T10:58:06.615Z,3.92
2022-11-28T11:00:36.465Z,4.00
2022-11-28T11:03:09.304Z,4.00
2022-11-28T11:05:37.852Z,4.10
2022-11-28T11:08:35.236Z,4.10
2022-11-28T11:11:30.660Z,4.10
2022-11-28T11:14:07.763Z,4.10
2022-11-28T11:16:56.952Z,4.10
2022-11-28T11:19:34.046Z,4.20
2022-11-28T11:22:20.652Z,4.20
2022-11-28T11:25:16.160Z,4.20
2022-11-28T11:28:01.351Z,4.30
2022-11-28T11:30:42.838Z,4.30
2022-11-28T11:33:17.634Z,4.30
2022-11-28T11:35:49.458Z,4.40
2022-11-28T11:38:34.794Z,4.40
2022-11-28T11:41:29.827Z,4.40
2022-11-28T11:44:15.746Z,4.50
2022-11-28T11:46:55.670Z,4.50
2022-11-28T11:49:45.842Z,4.50
2022-11-28T11:52:14.014Z,4.50
2022-11-28T11:54:57.222Z,4.50
2022-11-28T11:57:36.999Z,4.50
2022-11-28T12:00:15.161Z,4.50
2022-11-28T12:02:59.515Z,4.50
2022-11-28T12:05:52.352Z,4.50
2022-11-28T12:08:38.112Z,4.50
2022-11-28T12:11:18.332Z,4.50
2022-11-28T12:13:46.616Z,4.60
2022-11-28T12:16:36.466Z,4.60
2022-11-28T12:19:32.332Z,4.60
2022-11-28T12:22:20.040Z,4.60
2022-11-28T12:25:09.560Z,4.60
2022-11-28T12:28:04.669Z,4.60
2022-11-28T12:30:52.581Z,4.60
2022-11-28T12:33:26.265Z,4.60
2022-11-28T12:36:21.398Z,4.70
2022-11-28T12:39:09.704Z,4.70
2022-11-28T12:42:28.260Z,4.70
2022-11-28T12:45:11.182Z,4.72
2022-11-28T12:48:02.947Z,4.72
2022-11-28T12:50:50.034Z,4.78
2022-11-28T12:53:41.182Z,4.80
2022-11-28T12:56:42.233Z,4.80
2022-11-28T12:59:22.363Z,4.86
2022-11-28T13:02:24.887Z,4.90
2022-11-28T13:05:21.650Z,4.90
2022-11-28T13:08:03.877Z,4.90
2022-11-28T13:10:59.108Z,4.90
2022-11-28T13:13:37.882Z,4.90
2022-11-28T13:16:42.977Z,4.90
2022-11-28T13:19:51.776Z,4.90
2022-11-28T13:22:28.598Z,4.90
2022-11-28T13:25:24.656Z,4.90
2022-11-28T13:28:15.782Z,4.92
2022-11-28T13:30:52.670Z,5.00
2022-11-28T13:33:38.315Z,5.00
2022-11-28T13:38:35.225Z,5.00
2022-11-28T13:39:35.734Z,5.00
2022-11-28T13:43:07.949Z,5.00
2022-11-28T13:45:42.465Z,5.00
2022-11-28T13:51:33.417Z,5.00
2022-11-28T13:54:17.168Z,5.00
2022-11-28T13:56:47.882Z,5.00
2022-11-28T13:59:25.367Z,5.00
2022-11-28T14:02:03.478Z,5.00
2022-11-28T14:04:33.146Z,5.00
2022-11-28T14:07:07.779Z,4.96
2022-11-28T14:10:05.293Z,5.00
2022-11-28T14:13:03.929Z,5.00
2022-11-28T14:15:46.012Z,4.98
2022-11-28T14:18:58.425Z,5.00
2022-11-28T14:22:12.448Z,4.90
2022-11-28T14:25:11.320Z,4.90
2022-11-28T14:27:48.751Z,4.84
2022-11-28T14:30:34.363Z,4.80
2022-11-28T14:33:16.476Z,4.80
2022-11-28T14:35:50.198Z,4.80
2022-11-28T14:38:30.099Z,4.70
2022-11-28T14:41:05.016Z,4.70
2022-11-28T14:43:36.252Z,4.70
2022-11-28T14:46:16.236Z,4.70
2022-11-28T14:49:17.495Z,4.60
2022-11-28T14:51:48.224Z,4.60
2022-11-28T14:54:38.434Z,4.60
2022-11-28T14:57:26.885Z,4.60
2022-11-28T14:59:58.286Z,4.60
2022-11-28T15:03:04.239Z,4.60
2022-11-28T15:05:49.854Z,4.60
2022-11-28T15:08:23.415Z,4.60
2022-11-28T15:11:10.982Z,4.60
2022-11-28T15:14:07.282Z,4.50
2022-11-28T15:16:45.234Z,4.50
2022-11-28T15:19:20.280Z,4.40
2022-11-28T15:21:51.407Z,4.40
2022-11-28T15:24:27.331Z,4.40
2022-11-28T15:27:16.320Z,4.42
2022-11-28T15:29:55.384Z,4.40
2022-11-28T15:32:26.150Z,4.40
2022-11-28T15:35:00.629Z,4.30
2022-11-28T15:37:35.360Z,4.22
2022-11-28T15:40:06.069Z,4.20
2022-11-28T15:42:36.424Z,4.10
2022-11-28T15:45:24.672Z,4.10
2022-11-28T15:47:54.644Z,4.10
2022-11-28T15:50:27.303Z,4.10
2022-11-28T15:53:00.414Z,4.10
2022-11-28T15:55:32.563Z,4.00
2022-11-28T15:58:23.572Z,3.98
2022-11-28T16:01:20.208Z,3.90
2022-11-28T16:04:00.715Z,3.90
2022-11-28T16:06:36.418Z,3.84
2022-11-28T16:09:23.167Z,3.80
2022-11-28T16:11:53.879Z,3.80
2022-11-28T16:14:29.306Z,3.80
2022-11-28T16:16:59.339Z,3.80
2022-11-28T16:19:35.224Z,3.70
2022-11-28T16:22:10.215Z,3.60
2022-11-28T16:24:57.162Z,3.50
2022-11-28T16:27:36.608Z,3.50
2022-11-28T16:30:33.567Z,3.42
2022-11-28T16:33:01.843Z,3.40
2022-11-28T16:35:40.331Z,3.40
2022-11-28T16:38:16.571Z,3.40
2022-11-28T16:40:44.913Z,3.38
2022-11-28T16:43:35.959Z,3.30
2022-11-28T16:46:08.152Z,3.24
2022-11-28T16:48:46.972Z,3.20
2022-11-28T16:51:14.858Z,3.20
2022-11-28T16:53:51.064Z,3.20
2022-11-28T16:56:31.045Z,3.20
2022-11-28T16:59:07.956Z,3.20
2022-11-28T17:01:36.501Z,3.12
2022-11-28T17:04:05.248Z,3.10
2022-11-28T17:06:39.170Z,3.10
2022-11-28T17:09:11.400Z,3.00
2022-11-28T17:11:47.395Z,3.00
2022-11-28T17:14:15.129Z,3.02
2022-11-28T17:16:44.458Z,3.00
2022-11-28T17:19:12.946Z,3.00
2022-11-28T17:22:02.961Z,3.00
2022-11-28T17:24:35.462Z,3.00
2022-11-28T17:27:04.116Z,2.90
2022-11-28T17:29:31.774Z,2.90
2022-11-28T17:32:02.155Z,2.90
2022-11-28T17:34:34.022Z,2.90
2022-11-28T17:37:03.198Z,2.90
2022-11-28T17:39:31.331Z,2.92
2022-11-28T17:41:59.227Z,2.94
2022-11-28T17:44:30.714Z,2.90
2022-11-28T17:47:00.784Z,2.90
2022-11-28T17:49:30.719Z,2.88
2022-11-28T17:51:58.894Z,2.88
2022-11-28T17:54:27.506Z,2.88
2022-11-28T17:56:56.301Z,2.80
2022-11-28T17:59:24.721Z,2.80
2022-11-28T18:01:52.925Z,2.80
2022-11-28T18:04:20.912Z,2.70
2022-11-28T18:06:48.939Z,2.70
2022-11-28T18:09:16.608Z,2.70
2022-11-28T18:11:46.458Z,2.60
2022-11-28T18:14:19.254Z,2.60
2022-11-28T18:16:47.611Z,2.60
2022-11-28T18:19:15.597Z,2.60
2022-11-28T18:21:43.284Z,2.50
2022-11-28T18:24:10.985Z,2.50
2022-11-28T18:26:39.170Z,2.50
2022-11-28T18:29:07.398Z,2.50
2022-11-28T18:31:35.847Z,2.50
2022-11-28T18:34:07.610Z,2.50
2022-11-28T18:36:38.188Z,2.50
2022-11-28T18:39:11.496Z,2.50
2022-11-28T18:41:40.067Z,2.50
2022-11-28T18:44:08.274Z,2.44
2022-11-28T18:46:36.017Z,2.40
2022-11-28T18:49:03.788Z,2.40
2022-11-28T18:51:34.462Z,2.40
2022-11-28T18:54:05.135Z,2.40
2022-11-28T18:56:33.203Z,2.40
2022-11-28T18:59:01.073Z,2.40
2022-11-28T19:01:33.104Z,2.40
2022-11-28T19:04:11.003Z,2.38
2022-11-28T19:06:40.618Z,2.30
2022-11-28T19:09:14.221Z,2.30
2022-11-28T19:11:43.223Z,2.30
2022-11-28T19:14:16.407Z,2.30
2022-11-28T19:16:45.745Z,2.30
2022-11-28T19:19:17.097Z,2.30
2022-11-28T19:21:44.817Z,2.30
2022-11-28T19:24:13.857Z,2.30
2022-11-28T19:26:41.867Z,2.30
2022-11-28T19:29:09.703Z,2.20
2022-11-28T19:31:39.315Z,2.20
2022-11-28T19:34:13.907Z,2.20
2022-11-28T19:36:48.279Z,2.20
2022-11-28T19:39:24.944Z,2.20
2022-11-28T19:41:54.823Z,2.20
2022-11-28T19:44:24.806Z,2.20
2022-11-28T19:46:53.417Z,2.10
2022-11-28T19:49:23.858Z,2.10
2022-11-28T19:51:52.546Z,2.10
2022-11-28T19:54:20.970Z,2.10
2022-11-28T19:56:50.134Z,2.10
2022-11-28T19:59:19.418Z,2.12
2022-11-28T20:01:49.868Z,2.16
2022-11-28T20:04:17.796Z,2.12
2022-11-28T20:06:45.615Z,2.14
2022-11-28T20:09:14.013Z,2.10
2022-11-28T20:11:43.184Z,2.10
2022-11-28T20:14:17.403Z,2.10
2022-11-28T20:16:46.719Z,2.10
2022-11-28T20:19:15.180Z,2.18
2022-11-28T20:21:42.872Z,2.12
2022-11-28T20:24:10.735Z,2.10
2022-11-28T20:26:42.584Z,2.10
2022-11-28T20:29:15.971Z,2.12
2022-11-28T20:31:47.126Z,2.10
2022-11-28T20:34:17.700Z,2.10
2022-11-28T20:36:50.138Z,2.10
2022-11-28T20:39:17.873Z,2.06
2022-11-28T20:41:45.591Z,2.00
2022-11-28T20:44:13.411Z,2.00
2022-11-28T20:46:43.360Z,2.00
2022-11-28T20:49:11.207Z,2.00
2022-11-28T20:51:39.700Z,2.00
2022-11-28T20:54:07.424Z,2.00
2022-11-28T20:57:05.152Z,1.98
2022-11-28T20:59:27.199Z,1.94
2022-11-28T21:01:55.045Z,2.00
2022-11-28T21:04:22.739Z,2.00
2022-11-28T21:06:50.448Z,2.00
2022-11-28T21:09:20.381Z,2.00
2022-11-28T21:11:58.489Z,1.92
2022-11-28T21:14:29.241Z,1.90
2022-11-28T21:16:58.619Z,1.90
2022-11-28T21:19:26.839Z,1.86
2022-11-28T21:21:54.618Z,1.80
2022-11-28T21:24:22.449Z,1.80
2022-11-28T21:26:53.869Z,1.84
2022-11-28T21:29:24.669Z,1.90
2022-11-28T21:31:53.788Z,1.90
2022-11-28T21:34:22.980Z,1.90
2022-11-28T21:36:51.301Z,1.88
2022-11-28T21:39:20.619Z,1.84
2022-11-28T21:41:48.984Z,1.80
2022-11-28T21:44:16.842Z,1.80
2022-11-28T21:46:44.645Z,1.80
2022-11-28T21:49:12.800Z,1.80
2022-11-28T21:51:41.098Z,1.78
2022-11-28T21:54:13.404Z,1.80
2022-11-28T21:56:41.305Z,1.80
2022-11-28T21:59:09.225Z,1.80
2022-11-28T22:01:37.002Z,1.72
2022-11-28T22:04:05.660Z,1.70
2022-11-28T22:06:33.768Z,1.70
2022-11-28T22:09:09.121Z,1.70
2022-11-28T22:11:39.135Z,1.70
2022-11-28T22:14:06.989Z,1.70
2022-11-28T22:16:34.666Z,1.70
2022-11-28T22:19:02.324Z,1.70
2022-11-28T22:24:18.169Z,1.70
2022-11-28T22:26:46.112Z,1.70
2022-11-28T22:29:14.867Z,1.60
2022-11-28T22:31:42.637Z,1.60
2022-11-28T22:34:10.603Z,1.60
2022-11-28T22:36:38.633Z,1.60
2022-11-28T22:39:06.564Z,1.50
2022-11-28T22:41:34.211Z,1.50
2022-11-28T22:44:04.311Z,1.54
2022-11-28T22:46:33.088Z,1.58
2022-11-28T22:49:01.701Z,1.60
2022-11-28T22:51:30.989Z,1.60
2022-11-28T22:54:01.851Z,1.60
2022-11-28T22:56:33.359Z,1.60
2022-11-28T22:59:01.154Z,1.52
2022-11-28T23:01:32.452Z,1.50
2022-11-28T23:04:00.539Z,1.50
2022-11-28T23:06:33.018Z,1.50
2022-11-28T23:09:06.475Z,1.50
2022-11-28T23:11:37.647Z,1.48
2022-11-28T23:14:06.498Z,1.48
2022-11-28T23:16:38.832Z,1.40
2022-11-28T23:19:11.923Z,1.40
2022-11-28T23:21:42.763Z,1.40
2022-11-28T23:24:17.382Z,1.40
2022-11-28T23:26:45.661Z,1.30
2022-11-28T23:29:14.704Z,1.30
2022-11-28T23:31:43.935Z,1.24
2022-11-28T23:34:12.147Z,1.20
2022-11-28T23:36:43.264Z,1.20
2022-11-28T23:39:21.432Z,1.20
2022-11-28T23:41:50.225Z,1.20
2022-11-28T23:44:19.753Z,1.22
2022-11-28T23:46:48.378Z,1.20
2022-11-28T23:49:16.902Z,1.20
2022-11-28T23:51:44.587Z,1.20
2022-11-28T23:54:12.962Z,1.20
2022-11-28T23:56:42.077Z,1.20
2022-11-28T23:59:11.985Z,1.20
